createdAt,value
2023-03-14T00:01:57.755Z,100.00
2023-03-14T00:06:59.270Z,100.00
2023-03-14T00:12:00.832Z,100.00
2023-03-14T00:17:02.383Z,100.00
2023-03-14T00:22:03.870Z,100.00
2023-03-14T00:27:05.374Z,100.00
2023-03-14T00:32:06.844Z,100.00
2023-03-14T00:37:08.427Z,100.00
2023-03-14T00:42:10.055Z,100.00
2023-03-14T00:47:11.621Z,100.00
2023-03-14T00:52:13.584Z,100.00
2023-03-14T00:57:15.144Z,100.00
2023-03-14T01:02:16.702Z,100.00
2023-03-14T01:07:18.182Z,100.00
2023-03-14T01:12:19.734Z,100.00
2023-03-14T01:17:21.228Z,100.00
2023-03-14T01:22:22.968Z,100.00
2023-03-14T01:27:24.523Z,100.00
2023-03-14T01:32:26.506Z,100.00
2023-03-14T01:37:28.072Z,100.00
2023-03-14T01:42:29.632Z,100.00
2023-03-14T01:47:31.458Z,100.00
2023-03-14T01:52:42.939Z,100.00
2023-03-14T01:57:48.942Z,100.00
2023-03-14T02:02:56.373Z,100.00
2023-03-14T02:08:00.571Z,100.00
2023-03-14T02:13:05.484Z,100.00
2023-03-14T02:18:08.479Z,100.00
2023-03-14T02:23:09.953Z,100.00
2023-03-14T02:28:12.541Z,100.00
2023-03-14T02:33:19.915Z,100.00
2023-03-14T02:38:48.366Z,100.00
2023-03-14T02:43:50.011Z,100.00
2023-03-14T02:48:58.702Z,100.00
2023-03-14T02:54:00.287Z,100.00
2023-03-14T02:59:04.723Z,100.00
2023-03-14T03:04:06.263Z,100.00
2023-03-14T03:09:07.787Z,100.00
2023-03-14T03:14:09.261Z,100.00
2023-03-14T03:19:10.777Z,100.00
2023-03-14T03:24:12.325Z,100.00
2023-03-14T03:29:13.841Z,100.00
2023-03-14T03:34:15.902Z,100.00
2023-03-14T03:39:17.423Z,100.00
2023-03-14T03:44:18.963Z,100.00
2023-03-14T03:49:20.496Z,100.00
2023-03-14T03:54:22.030Z,100.00
2023-03-14T03:59:23.646Z,100.00
2023-03-14T04:04:25.221Z,100.00
2023-03-14T04:09:26.840Z,100.00
2023-03-14T04:14:28.515Z,100.00
2023-03-14T04:19:30.026Z,100.00
2023-03-14T04:24:31.544Z,100.00
2023-03-14T04:29:33.004Z,100.00
2023-03-14T04:34:34.469Z,100.00
2023-03-14T04:39:35.931Z,100.00
2023-03-14T04:44:37.437Z,100.00
2023-03-14T04:49:38.948Z,100.00
2023-03-14T04:54:40.448Z,100.00
2023-03-14T04:59:41.987Z,100.00
2023-03-14T05:04:43.471Z,100.00
2023-03-14T05:09:44.972Z,100.00
2023-03-14T05:14:46.468Z,100.00
2023-03-14T05:19:47.939Z,100.00
2023-03-14T05:24:49.461Z,100.00
2023-03-14T05:29:51.010Z,100.00
2023-03-14T05:34:52.772Z,100.00
2023-03-14T05:39:54.532Z,100.00
2023-03-14T05:44:56.039Z,100.00
2023-03-14T05:49:57.528Z,100.00
2023-03-14T05:54:59.067Z,100.00
2023-03-14T06:00:00.619Z,100.00
2023-03-14T06:05:02.064Z,100.00
2023-03-14T06:10:03.873Z,100.00
2023-03-14T06:15:05.918Z,100.00
2023-03-14T06:20:08.286Z,100.00
2023-03-14T06:25:09.973Z,100.00
2023-03-14T06:30:12.037Z,100.00
2023-03-14T06:35:13.628Z,100.00
2023-03-14T06:40:17.996Z,100.00
2023-03-14T06:45:19.803Z,100.00
2023-03-14T06:50:23.168Z,100.00
2023-03-14T06:55:24.796Z,100.00
2023-03-14T07:00:26.298Z,100.00
2023-03-14T07:05:27.894Z,100.00
2023-03-14T07:10:29.531Z,100.00
2023-03-14T07:15:31.591Z,100.00
2023-03-14T07:20:33.349Z,100.00
2023-03-14T07:25:34.917Z,100.00
2023-03-14T07:30:36.450Z,100.00
2023-03-14T07:35:38.383Z,100.00
2023-03-14T07:40:39.924Z,100.00
2023-03-14T07:45:43.245Z,100.00
2023-03-14T07:50:45.339Z,100.00
2023-03-14T07:55:47.162Z,100.00
2023-03-14T08:00:49.038Z,100.00
2023-03-14T08:05:51.507Z,100.00
2023-03-14T08:10:53.050Z,100.00
2023-03-14T08:15:54.616Z,100.00
2023-03-14T08:20:56.205Z,100.00
2023-03-14T08:25:57.750Z,100.00
2023-03-14T08:30:59.986Z,100.00
2023-03-14T08:36:02.233Z,100.00
2023-03-14T08:41:04.820Z,100.00
2023-03-14T08:46:06.748Z,100.00
2023-03-14T08:51:11.771Z,100.00
2023-03-14T08:56:13.284Z,100.00
2023-03-14T09:01:14.899Z,100.00
2023-03-14T09:06:18.933Z,100.00
2023-03-14T09:11:20.628Z,100.00
2023-03-14T09:16:22.369Z,100.00
2023-03-14T09:21:23.996Z,100.00
2023-03-14T09:26:25.504Z,100.00
2023-03-14T09:31:27.032Z,100.00
2023-03-14T09:36:28.875Z,100.00
2023-03-14T09:41:34.078Z,100.00
2023-03-14T09:46:38.317Z,100.00
2023-03-14T09:51:40.713Z,100.00
2023-03-14T09:56:43.332Z,100.00
2023-03-14T10:01:44.914Z,100.00
2023-03-14T10:06:46.557Z,100.00
2023-03-14T10:11:48.119Z,100.00
2023-03-14T10:16:51.726Z,100.00
2023-03-14T10:21:57.723Z,100.00
2023-03-14T10:27:09.989Z,100.00
2023-03-14T10:32:20.800Z,99.42
2023-03-14T10:37:26.811Z,97.19
2023-03-14T10:42:34.791Z,91.50
2023-03-14T10:47:36.402Z,87.72
2023-03-14T10:53:01.496Z,86.93
2023-03-14T10:58:04.291Z,86.46
2023-03-14T11:03:15.431Z,84.03
2023-03-14T11:08:32.807Z,83.92
2023-03-14T11:13:48.152Z,81.21
2023-03-14T11:18:52.370Z,81.32
2023-03-14T11:24:02.568Z,78.24
2023-03-14T11:29:24.467Z,73.22
2023-03-14T11:34:34.643Z,72.89
2023-03-14T11:39:41.319Z,73.51
2023-03-14T11:44:47.104Z,72.46
2023-03-14T11:49:55.074Z,71.94
2023-03-14T11:55:03.837Z,69.79
2023-03-14T12:00:25.757Z,68.73
2023-03-14T12:05:47.610Z,66.34
2023-03-14T12:10:57.874Z,66.35
2023-03-14T12:16:04.323Z,65.50
2023-03-14T12:21:09.016Z,65.89
2023-03-14T12:26:15.673Z,64.99
2023-03-14T12:31:35.303Z,65.10
2023-03-14T12:36:49.561Z,67.12
2023-03-14T12:42:32.499Z,66.66
2023-03-14T12:47:39.912Z,68.14
2023-03-14T12:53:04.063Z,67.07
2023-03-14T12:58:25.793Z,63.92
2023-03-14T13:03:43.641Z,61.09
2023-03-14T13:08:46.250Z,60.57
2023-03-14T13:13:57.117Z,60.85
2023-03-14T13:19:04.965Z,60.17
2023-03-14T13:24:08.606Z,60.63
2023-03-14T13:29:17.064Z,61.81
2023-03-14T13:34:19.290Z,58.65
2023-03-14T13:39:25.821Z,57.69
2023-03-14T13:44:36.826Z,58.74
2023-03-14T13:49:39.168Z,58.70
2023-03-14T13:54:40.748Z,59.88
2023-03-14T13:59:42.225Z,59.75
2023-03-14T14:04:43.785Z,58.85
2023-03-14T14:09:56.294Z,59.24
2023-03-14T14:15:08.604Z,58.20
2023-03-14T14:20:37.781Z,58.40
2023-03-14T14:25:39.871Z,57.72
2023-03-14T14:30:41.556Z,57.76
2023-03-14T14:35:43.337Z,59.51
2023-03-14T14:40:47.479Z,61.55
2023-03-14T14:45:51.690Z,61.69
2023-03-14T14:51:05.753Z,64.49
2023-03-14T14:56:26.099Z,65.02
2023-03-14T15:01:35.285Z,66.58
2023-03-14T15:06:36.849Z,66.28
2023-03-14T15:11:38.593Z,64.55
2023-03-14T15:16:40.978Z,65.61
2023-03-14T15:21:42.497Z,65.62
2023-03-14T15:26:45.352Z,63.68
2023-03-14T15:31:46.990Z,63.94
2023-03-14T15:36:49.624Z,62.41
2023-03-14T15:41:51.164Z,63.59
2023-03-14T15:46:52.676Z,65.88
2023-03-14T15:51:56.151Z,67.69
2023-03-14T15:56:58.947Z,69.06
2023-03-14T16:02:00.711Z,69.20
2023-03-14T16:07:02.235Z,69.40
2023-03-14T16:12:05.902Z,69.94
2023-03-14T16:17:11.699Z,69.41
2023-03-14T16:22:13.285Z,68.86
2023-03-14T16:27:14.795Z,69.52
2023-03-14T16:32:16.421Z,70.37
2023-03-14T16:37:18.081Z,70.15
2023-03-14T16:42:21.309Z,70.27
2023-03-14T16:47:22.837Z,70.46
2023-03-14T16:52:25.596Z,71.83
2023-03-14T16:57:27.122Z,72.23
2023-03-14T17:02:28.676Z,73.58
2023-03-14T17:07:30.163Z,74.22
2023-03-14T17:12:31.670Z,75.15
2023-03-14T17:17:33.199Z,73.79
2023-03-14T17:22:35.918Z,72.60
2023-03-14T17:27:37.466Z,71.86
2023-03-14T17:32:39.077Z,71.80
2023-03-14T17:37:41.332Z,72.51
2023-03-14T17:42:42.860Z,73.72
2023-03-14T17:47:44.848Z,73.88
2023-03-14T17:52:46.336Z,73.62
2023-03-14T17:57:48.909Z,72.99
2023-03-14T18:08:16.005Z,74.17
2023-03-14T18:13:17.853Z,75.69
2023-03-14T18:18:20.045Z,76.24
2023-03-14T18:23:22.254Z,77.15
2023-03-14T18:28:23.810Z,78.24
2023-03-14T18:33:25.347Z,79.03
2023-03-14T18:38:26.943Z,78.59
2023-03-14T18:43:28.477Z,78.58
2023-03-14T18:48:30.702Z,79.46
2023-03-14T18:53:32.739Z,79.07
2023-03-14T18:58:34.794Z,78.65
2023-03-14T19:03:37.603Z,81.41
2023-03-14T19:08:42.057Z,84.36
2023-03-14T19:13:43.927Z,86.88
2023-03-14T19:18:45.413Z,88.04
2023-03-14T19:23:49.053Z,89.33
2023-03-14T19:28:52.853Z,90.08
2023-03-14T19:33:55.695Z,90.63
2023-03-14T19:38:57.430Z,92.09
2023-03-14T19:43:59.789Z,92.46
2023-03-14T19:49:01.355Z,93.19
2023-03-14T19:54:04.918Z,94.01
2023-03-14T19:59:06.507Z,92.66
2023-03-14T20:04:08.018Z,89.51
2023-03-14T20:09:10.745Z,87.75
2023-03-14T20:14:14.583Z,86.26
2023-03-14T20:19:16.352Z,86.14
2023-03-14T20:24:18.131Z,88.61
2023-03-14T20:29:20.050Z,92.29
2023-03-14T20:34:21.610Z,95.06
2023-03-14T20:39:24.599Z,96.79
2023-03-14T20:44:26.184Z,98.06
2023-03-14T20:49:27.654Z,99.03
2023-03-14T20:54:29.143Z,100.00
2023-03-14T20:59:30.746Z,100.00
2023-03-14T21:04:32.365Z,100.00
2023-03-14T21:09:33.936Z,100.00
2023-03-14T21:14:35.516Z,100.00
2023-03-14T21:19:37.020Z,100.00
2023-03-14T21:24:38.497Z,100.00
2023-03-14T21:29:40.068Z,100.00
2023-03-14T21:34:41.583Z,100.00
2023-03-14T21:39:43.076Z,100.00
2023-03-14T21:44:48.639Z,100.00
2023-03-14T21:49:51.375Z,100.00
2023-03-14T21:54:52.849Z,100.00
2023-03-14T21:59:54.355Z,100.00
2023-03-14T22:04:55.814Z,100.00
2023-03-14T22:09:57.306Z,100.00
2023-03-14T22:14:58.834Z,100.00
2023-03-14T22:20:00.553Z,100.00
2023-03-14T22:25:02.127Z,100.00
2023-03-14T22:30:04.104Z,100.00
2023-03-14T22:35:05.957Z,100.00
2023-03-14T22:40:08.098Z,100.00
2023-03-14T22:45:09.907Z,100.00
2023-03-14T22:50:11.637Z,100.00
2023-03-14T22:55:13.172Z,100.00
2023-03-14T23:00:16.805Z,100.00
2023-03-14T23:05:18.349Z,100.00
2023-03-14T23:10:20.252Z,100.00
2023-03-14T23:15:21.728Z,100.00
2023-03-14T23:20:23.832Z,100.00
2023-03-14T23:25:25.381Z,100.00
2023-03-14T23:30:26.910Z,100.00
2023-03-14T23:35:28.409Z,100.00
2023-03-14T23:40:29.909Z,100.00
2023-03-14T23:45:31.374Z,100.00
2023-03-14T23:50:35.486Z,100.00
2023-03-14T23:55:37.052Z,100.00
